sensor_id;sensor_type;location;lat;lon;timestamp;P1;durP1;ratioP1;P2;durP2;ratioP2
50350;SDS011;36250;48.740;22.174;2023-04-15T00:00:13;8.68;;;7.47;;
50350;SDS011;36250;48.740;22.174;2023-04-15T00:02:40;12.38;;;8.50;;
50350;SDS011;36250;48.740;22.174;2023-04-15T00:05:06;8.52;;;7.57;;
50350;SDS011;36250;48.740;22.174;2023-04-15T00:07:32;9.55;;;8.20;;
50350;SDS011;36250;48.740;22.174;2023-04-15T00:09:57;9.10;;;8.07;;
50350;SDS011;36250;48.740;22.174;2023-04-15T00:12:23;11.65;;;9.77;;
50350;SDS011;36250;48.740;22.174;2023-04-15T00:14:49;9.98;;;8.68;;
50350;SDS011;36250;48.740;22.174;2023-04-15T00:17:15;11.48;;;8.55;;
50350;SDS011;36250;48.740;22.174;2023-04-15T00:19:41;12.20;;;8.80;;
50350;SDS011;36250;48.740;22.174;2023-04-15T00:22:06;14.82;;;9.27;;
50350;SDS011;36250;48.740;22.174;2023-04-15T00:24:32;11.65;;;8.98;;
50350;SDS011;36250;48.740;22.174;2023-04-15T00:26:58;12.25;;;9.27;;
50350;SDS011;36250;48.740;22.174;2023-04-15T00:29:23;10.50;;;9.15;;
50350;SDS011;36250;48.740;22.174;2023-04-15T00:31:49;9.90;;;8.90;;
50350;SDS011;36250;48.740;22.174;2023-04-15T00:34:14;8.88;;;8.00;;
50350;SDS011;36250;48.740;22.174;2023-04-15T00:36:40;14.23;;;9.10;;
50350;SDS011;36250;48.740;22.174;2023-04-15T00:39:06;10.90;;;8.77;;
50350;SDS011;36250;48.740;22.174;2023-04-15T00:41:31;10.43;;;8.80;;
50350;SDS011;36250;48.740;22.174;2023-04-15T00:43:58;11.02;;;8.77;;
50350;SDS011;36250;48.740;22.174;2023-04-15T00:46:24;10.25;;;9.25;;
50350;SDS011;36250;48.740;22.174;2023-04-15T00:48:53;10.95;;;9.10;;
50350;SDS011;36250;48.740;22.174;2023-04-15T00:51:19;12.40;;;10.38;;
50350;SDS011;36250;48.740;22.174;2023-04-15T00:53:44;13.40;;;9.98;;
50350;SDS011;36250;48.740;22.174;2023-04-15T00:56:10;11.90;;;10.27;;
50350;SDS011;36250;48.740;22.174;2023-04-15T00:58:36;10.63;;;9.15;;
50350;SDS011;36250;48.740;22.174;2023-04-15T01:01:01;10.15;;;8.75;;
50350;SDS011;36250;48.740;22.174;2023-04-15T01:03:28;11.18;;;9.13;;
50350;SDS011;36250;48.740;22.174;2023-04-15T01:05:55;12.70;;;9.27;;
50350;SDS011;36250;48.740;22.174;2023-04-15T01:08:26;13.00;;;10.63;;
50350;SDS011;36250;48.740;22.174;2023-04-15T01:10:53;18.35;;;9.85;;
50350;SDS011;36250;48.740;22.174;2023-04-15T01:13:21;14.05;;;9.43;;
50350;SDS011;36250;48.740;22.174;2023-04-15T01:15:50;10.48;;;9.15;;
50350;SDS011;36250;48.740;22.174;2023-04-15T01:18:16;10.77;;;9.75;;
50350;SDS011;36250;48.740;22.174;2023-04-15T01:20:43;12.38;;;10.50;;
50350;SDS011;36250;48.740;22.174;2023-04-15T01:23:08;13.10;;;10.02;;
50350;SDS011;36250;48.740;22.174;2023-04-15T01:25:34;13.65;;;10.65;;
50350;SDS011;36250;48.740;22.174;2023-04-15T01:27:59;15.55;;;10.38;;
50350;SDS011;36250;48.740;22.174;2023-04-15T01:30:26;14.73;;;11.88;;
50350;SDS011;36250;48.740;22.174;2023-04-15T01:32:51;11.75;;;10.48;;
50350;SDS011;36250;48.740;22.174;2023-04-15T01:35:17;10.45;;;9.27;;
50350;SDS011;36250;48.740;22.174;2023-04-15T01:37:43;14.38;;;10.50;;
50350;SDS011;36250;48.740;22.174;2023-04-15T01:40:09;12.38;;;10.32;;
50350;SDS011;36250;48.740;22.174;2023-04-15T01:42:35;11.95;;;9.75;;
50350;SDS011;36250;48.740;22.174;2023-04-15T01:45:01;11.50;;;9.20;;
50350;SDS011;36250;48.740;22.174;2023-04-15T01:47:27;11.27;;;9.70;;
50350;SDS011;36250;48.740;22.174;2023-04-15T01:49:52;9.43;;;8.40;;
50350;SDS011;36250;48.740;22.174;2023-04-15T01:52:17;12.60;;;10.30;;
50350;SDS011;36250;48.740;22.174;2023-04-15T01:54:43;10.52;;;9.38;;
50350;SDS011;36250;48.740;22.174;2023-04-15T01:57:08;10.27;;;9.20;;
50350;SDS011;36250;48.740;22.174;2023-04-15T01:59:34;14.27;;;9.57;;
50350;SDS011;36250;48.740;22.174;2023-04-15T02:01:59;13.20;;;9.65;;
50350;SDS011;36250;48.740;22.174;2023-04-15T02:04:25;11.13;;;10.02;;
50350;SDS011;36250;48.740;22.174;2023-04-15T02:06:51;12.98;;;9.30;;
50350;SDS011;36250;48.740;22.174;2023-04-15T02:09:17;13.50;;;9.63;;
50350;SDS011;36250;48.740;22.174;2023-04-15T02:11:42;13.27;;;10.52;;
50350;SDS011;36250;48.740;22.174;2023-04-15T02:14:08;13.13;;;10.52;;
50350;SDS011;36250;48.740;22.174;2023-04-15T02:16:33;11.65;;;10.45;;
50350;SDS011;36250;48.740;22.174;2023-04-15T02:18:59;16.05;;;11.70;;
50350;SDS011;36250;48.740;22.174;2023-04-15T02:21:27;14.27;;;11.25;;
50350;SDS011;36250;48.740;22.174;2023-04-15T02:23:53;11.48;;;10.27;;
50350;SDS011;36250;48.740;22.174;2023-04-15T02:26:19;14.05;;;10.63;;
50350;SDS011;36250;48.740;22.174;2023-04-15T02:28:45;11.40;;;9.57;;
50350;SDS011;36250;48.740;22.174;2023-04-15T02:31:11;12.68;;;9.77;;
50350;SDS011;36250;48.740;22.174;2023-04-15T02:33:36;11.25;;;9.60;;
50350;SDS011;36250;48.740;22.174;2023-04-15T02:36:02;11.15;;;8.50;;
50350;SDS011;36250;48.740;22.174;2023-04-15T02:38:28;11.57;;;9.57;;
50350;SDS011;36250;48.740;22.174;2023-04-15T02:40:53;8.75;;;7.90;;
50350;SDS011;36250;48.740;22.174;2023-04-15T02:43:18;12.00;;;7.05;;
50350;SDS011;36250;48.740;22.174;2023-04-15T02:45:44;9.60;;;8.00;;
50350;SDS011;36250;48.740;22.174;2023-04-15T02:48:11;11.32;;;7.53;;
50350;SDS011;36250;48.740;22.174;2023-04-15T02:50:37;10.50;;;7.05;;
50350;SDS011;36250;48.740;22.174;2023-04-15T02:53:05;8.00;;;6.70;;
50350;SDS011;36250;48.740;22.174;2023-04-15T02:55:31;6.93;;;6.10;;
50350;SDS011;36250;48.740;22.174;2023-04-15T02:57:56;8.60;;;5.60;;
50350;SDS011;36250;48.740;22.174;2023-04-15T03:00:25;5.90;;;5.30;;
50350;SDS011;36250;48.740;22.174;2023-04-15T03:02:56;6.38;;;4.80;;
50350;SDS011;36250;48.740;22.174;2023-04-15T03:05:22;5.28;;;4.35;;
50350;SDS011;36250;48.740;22.174;2023-04-15T03:07:51;7.97;;;4.18;;
50350;SDS011;36250;48.740;22.174;2023-04-15T03:10:16;4.90;;;3.50;;
50350;SDS011;36250;48.740;22.174;2023-04-15T03:12:42;6.30;;;4.30;;
50350;SDS011;36250;48.740;22.174;2023-04-15T03:15:07;5.43;;;4.05;;
50350;SDS011;36250;48.740;22.174;2023-04-15T03:17:33;7.60;;;4.40;;
50350;SDS011;36250;48.740;22.174;2023-04-15T03:20:00;7.63;;;4.78;;
50350;SDS011;36250;48.740;22.174;2023-04-15T03:22:27;5.78;;;4.55;;
50350;SDS011;36250;48.740;22.174;2023-04-15T03:24:52;5.65;;;4.90;;
50350;SDS011;36250;48.740;22.174;2023-04-15T03:27:17;7.88;;;4.95;;
50350;SDS011;36250;48.740;22.174;2023-04-15T03:29:42;7.43;;;5.50;;
50350;SDS011;36250;48.740;22.174;2023-04-15T03:32:08;6.95;;;5.03;;
50350;SDS011;36250;48.740;22.174;2023-04-15T03:34:33;7.00;;;5.53;;
50350;SDS011;36250;48.740;22.174;2023-04-15T03:36:58;9.63;;;5.30;;
50350;SDS011;36250;48.740;22.174;2023-04-15T03:39:24;8.18;;;4.80;;
50350;SDS011;36250;48.740;22.174;2023-04-15T03:41:49;7.32;;;5.43;;
50350;SDS011;36250;48.740;22.174;2023-04-15T03:44:15;6.50;;;5.45;;
50350;SDS011;36250;48.740;22.174;2023-04-15T03:46:40;9.23;;;5.95;;
50350;SDS011;36250;48.740;22.174;2023-04-15T03:49:06;5.38;;;3.97;;
50350;SDS011;36250;48.740;22.174;2023-04-15T03:51:31;6.18;;;3.85;;
50350;SDS011;36250;48.740;22.174;2023-04-15T03:53:56;6.38;;;3.55;;
50350;SDS011;36250;48.740;22.174;2023-04-15T03:56:22;5.13;;;3.03;;
50350;SDS011;36250;48.740;22.174;2023-04-15T03:58:48;3.90;;;2.80;;
50350;SDS011;36250;48.740;22.174;2023-04-15T04:01:14;6.35;;;2.50;;
50350;SDS011;36250;48.740;22.174;2023-04-15T04:03:40;4.13;;;2.60;;
50350;SDS011;36250;48.740;22.174;2023-04-15T04:06:05;3.88;;;2.55;;
50350;SDS011;36250;48.740;22.174;2023-04-15T04:08:31;3.72;;;3.33;;
50350;SDS011;36250;48.740;22.174;2023-04-15T04:10:57;5.72;;;3.40;;
50350;SDS011;36250;48.740;22.174;2023-04-15T04:13:22;8.95;;;3.30;;
50350;SDS011;36250;48.740;22.174;2023-04-15T04:15:48;6.35;;;3.28;;
50350;SDS011;36250;48.740;22.174;2023-04-15T04:18:13;3.88;;;3.58;;
50350;SDS011;36250;48.740;22.174;2023-04-15T04:20:38;9.80;;;4.05;;
50350;SDS011;36250;48.740;22.174;2023-04-15T04:23:04;9.82;;;4.38;;
50350;SDS011;36250;48.740;22.174;2023-04-15T04:25:29;4.55;;;3.53;;
50350;SDS011;36250;48.740;22.174;2023-04-15T04:27:54;5.25;;;3.55;;
50350;SDS011;36250;48.740;22.174;2023-04-15T04:30:20;6.03;;;3.75;;
50350;SDS011;36250;48.740;22.174;2023-04-15T04:32:46;4.50;;;3.33;;
50350;SDS011;36250;48.740;22.174;2023-04-15T04:35:11;4.80;;;3.50;;
50350;SDS011;36250;48.740;22.174;2023-04-15T04:37:36;8.38;;;3.45;;
50350;SDS011;36250;48.740;22.174;2023-04-15T04:40:02;3.35;;;3.05;;
50350;SDS011;36250;48.740;22.174;2023-04-15T04:42:28;4.75;;;3.08;;
50350;SDS011;36250;48.740;22.174;2023-04-15T04:44:54;7.18;;;3.22;;
50350;SDS011;36250;48.740;22.174;2023-04-15T04:47:19;4.35;;;2.85;;
50350;SDS011;36250;48.740;22.174;2023-04-15T04:49:44;6.38;;;2.78;;
50350;SDS011;36250;48.740;22.174;2023-04-15T04:52:10;6.50;;;2.47;;
50350;SDS011;36250;48.740;22.174;2023-04-15T04:54:35;4.05;;;2.42;;
50350;SDS011;36250;48.740;22.174;2023-04-15T04:57:01;2.75;;;2.00;;
50350;SDS011;36250;48.740;22.174;2023-04-15T04:59:27;3.00;;;2.03;;
50350;SDS011;36250;48.740;22.174;2023-04-15T05:01:52;8.23;;;2.42;;
50350;SDS011;36250;48.740;22.174;2023-04-15T05:04:17;5.60;;;2.13;;
50350;SDS011;36250;48.740;22.174;2023-04-15T05:06:42;2.40;;;2.20;;
50350;SDS011;36250;48.740;22.174;2023-04-15T05:09:08;5.40;;;2.33;;
50350;SDS011;36250;48.740;22.174;2023-04-15T05:11:33;4.93;;;2.30;;
50350;SDS011;36250;48.740;22.174;2023-04-15T05:13:58;2.22;;;2.00;;
50350;SDS011;36250;48.740;22.174;2023-04-15T05:16:26;3.15;;;2.85;;
50350;SDS011;36250;48.740;22.174;2023-04-15T05:18:51;5.80;;;1.98;;
50350;SDS011;36250;48.740;22.174;2023-04-15T05:21:16;4.45;;;2.83;;
50350;SDS011;36250;48.740;22.174;2023-04-15T05:23:42;2.97;;;2.30;;
50350;SDS011;36250;48.740;22.174;2023-04-15T05:26:07;2.95;;;2.40;;
50350;SDS011;36250;48.740;22.174;2023-04-15T05:28:33;7.43;;;2.50;;
50350;SDS011;36250;48.740;22.174;2023-04-15T05:30:58;4.28;;;2.83;;
50350;SDS011;36250;48.740;22.174;2023-04-15T05:33:24;4.47;;;1.98;;
50350;SDS011;36250;48.740;22.174;2023-04-15T05:35:49;7.43;;;3.20;;
50350;SDS011;36250;48.740;22.174;2023-04-15T05:38:15;3.17;;;2.25;;
50350;SDS011;36250;48.740;22.174;2023-04-15T05:40:41;4.53;;;3.03;;
50350;SDS011;36250;48.740;22.174;2023-04-15T05:43:06;7.38;;;2.60;;
50350;SDS011;36250;48.740;22.174;2023-04-15T05:45:31;3.00;;;2.75;;
50350;SDS011;36250;48.740;22.174;2023-04-15T05:47:57;5.38;;;2.65;;
50350;SDS011;36250;48.740;22.174;2023-04-15T05:50:22;4.53;;;2.92;;
50350;SDS011;36250;48.740;22.174;2023-04-15T05:52:48;4.07;;;3.20;;
50350;SDS011;36250;48.740;22.174;2023-04-15T05:55:13;5.32;;;3.08;;
50350;SDS011;36250;48.740;22.174;2023-04-15T05:57:38;3.28;;;2.80;;
50350;SDS011;36250;48.740;22.174;2023-04-15T06:00:04;6.78;;;3.00;;
50350;SDS011;36250;48.740;22.174;2023-04-15T06:02:30;4.18;;;2.40;;
50350;SDS011;36250;48.740;22.174;2023-04-15T06:04:56;6.82;;;2.90;;
50350;SDS011;36250;48.740;22.174;2023-04-15T06:07:22;9.00;;;2.45;;
50350;SDS011;36250;48.740;22.174;2023-04-15T06:09:47;7.20;;;3.47;;
50350;SDS011;36250;48.740;22.174;2023-04-15T06:12:13;4.85;;;2.75;;
50350;SDS011;36250;48.740;22.174;2023-04-15T06:14:39;5.13;;;2.60;;
50350;SDS011;36250;48.740;22.174;2023-04-15T06:17:04;4.28;;;2.75;;
50350;SDS011;36250;48.740;22.174;2023-04-15T06:19:30;4.03;;;2.33;;
50350;SDS011;36250;48.740;22.174;2023-04-15T06:21:56;3.50;;;2.22;;
50350;SDS011;36250;48.740;22.174;2023-04-15T06:24:22;3.03;;;2.45;;
50350;SDS011;36250;48.740;22.174;2023-04-15T06:26:47;4.13;;;2.15;;
50350;SDS011;36250;48.740;22.174;2023-04-15T06:29:13;4.93;;;2.50;;
50350;SDS011;36250;48.740;22.174;2023-04-15T06:31:38;2.30;;;1.88;;
50350;SDS011;36250;48.740;22.174;2023-04-15T06:34:03;9.48;;;2.30;;
50350;SDS011;36250;48.740;22.174;2023-04-15T06:36:29;3.25;;;1.80;;
50350;SDS011;36250;48.740;22.174;2023-04-15T06:38:54;7.47;;;2.00;;
50350;SDS011;36250;48.740;22.174;2023-04-15T06:41:21;3.55;;;1.63;;
50350;SDS011;36250;48.740;22.174;2023-04-15T06:43:46;4.75;;;1.88;;
50350;SDS011;36250;48.740;22.174;2023-04-15T06:46:12;2.08;;;1.67;;
50350;SDS011;36250;48.740;22.174;2023-04-15T06:48:37;4.20;;;1.48;;
50350;SDS011;36250;48.740;22.174;2023-04-15T06:51:03;3.15;;;1.85;;
50350;SDS011;36250;48.740;22.174;2023-04-15T06:53:28;3.30;;;1.63;;
50350;SDS011;36250;48.740;22.174;2023-04-15T06:55:53;2.15;;;1.45;;
50350;SDS011;36250;48.740;22.174;2023-04-15T06:58:19;2.35;;;1.45;;
50350;SDS011;36250;48.740;22.174;2023-04-15T07:00:45;3.00;;;1.60;;
50350;SDS011;36250;48.740;22.174;2023-04-15T07:03:11;1.92;;;1.40;;
50350;SDS011;36250;48.740;22.174;2023-04-15T07:05:37;2.35;;;1.70;;
50350;SDS011;36250;48.740;22.174;2023-04-15T07:08:02;3.13;;;1.48;;
50350;SDS011;36250;48.740;22.174;2023-04-15T07:10:28;6.03;;;1.58;;
50350;SDS011;36250;48.740;22.174;2023-04-15T07:12:53;1.45;;;1.35;;
50350;SDS011;36250;48.740;22.174;2023-04-15T07:15:19;1.65;;;1.30;;
50350;SDS011;36250;48.740;22.174;2023-04-15T07:17:45;2.22;;;1.48;;
50350;SDS011;36250;48.740;22.174;2023-04-15T07:20:10;3.03;;;1.25;;
50350;SDS011;36250;48.740;22.174;2023-04-15T07:22:36;1.42;;;1.15;;
50350;SDS011;36250;48.740;22.174;2023-04-15T07:25:02;2.88;;;1.30;;
50350;SDS011;36250;48.740;22.174;2023-04-15T07:27:28;3.58;;;1.45;;
50350;SDS011;36250;48.740;22.174;2023-04-15T07:29:53;3.05;;;1.40;;
50350;SDS011;36250;48.740;22.174;2023-04-15T07:32:18;1.08;;;0.98;;
50350;SDS011;36250;48.740;22.174;2023-04-15T07:34:44;1.88;;;1.13;;
50350;SDS011;36250;48.740;22.174;2023-04-15T07:37:09;1.73;;;1.15;;
50350;SDS011;36250;48.740;22.174;2023-04-15T07:39:35;1.63;;;1.33;;
50350;SDS011;36250;48.740;22.174;2023-04-15T07:42:01;2.17;;;0.98;;
50350;SDS011;36250;48.740;22.174;2023-04-15T07:44:26;4.38;;;1.40;;
50350;SDS011;36250;48.740;22.174;2023-04-15T07:46:52;9.23;;;2.10;;
50350;SDS011;36250;48.740;22.174;2023-04-15T07:49:17;2.97;;;1.63;;
50350;SDS011;36250;48.740;22.174;2023-04-15T07:51:46;1.50;;;1.35;;
50350;SDS011;36250;48.740;22.174;2023-04-15T07:54:11;5.68;;;2.38;;
50350;SDS011;36250;48.740;22.174;2023-04-15T07:56:37;2.38;;;1.40;;
50350;SDS011;36250;48.740;22.174;2023-04-15T07:59:02;3.22;;;1.80;;
50350;SDS011;36250;48.740;22.174;2023-04-15T08:01:30;3.35;;;1.83;;
50350;SDS011;36250;48.740;22.174;2023-04-15T08:03:55;3.00;;;2.63;;
50350;SDS011;36250;48.740;22.174;2023-04-15T08:06:21;3.03;;;2.10;;
50350;SDS011;36250;48.740;22.174;2023-04-15T08:08:46;4.30;;;2.13;;
50350;SDS011;36250;48.740;22.174;2023-04-15T08:11:12;3.47;;;2.15;;
50350;SDS011;36250;48.740;22.174;2023-04-15T08:13:37;31.77;;;6.07;;
50350;SDS011;36250;48.740;22.174;2023-04-15T08:16:14;4.10;;;2.13;;
50350;SDS011;36250;48.740;22.174;2023-04-15T08:18:50;2.47;;;2.03;;
50350;SDS011;36250;48.740;22.174;2023-04-15T08:21:17;3.75;;;1.73;;
50350;SDS011;36250;48.740;22.174;2023-04-15T08:23:44;1.98;;;1.58;;
50350;SDS011;36250;48.740;22.174;2023-04-15T08:26:10;2.80;;;1.92;;
50350;SDS011;36250;48.740;22.174;2023-04-15T08:28:37;3.20;;;2.60;;
50350;SDS011;36250;48.740;22.174;2023-04-15T08:31:03;8.63;;;2.20;;
50350;SDS011;36250;48.740;22.174;2023-04-15T08:33:29;3.58;;;1.65;;
50350;SDS011;36250;48.740;22.174;2023-04-15T08:35:55;1.83;;;1.63;;
50350;SDS011;36250;48.740;22.174;2023-04-15T08:38:20;2.83;;;2.22;;
50350;SDS011;36250;48.740;22.174;2023-04-15T08:40:46;2.40;;;1.75;;
50350;SDS011;36250;48.740;22.174;2023-04-15T08:43:14;3.97;;;2.28;;
50350;SDS011;36250;48.740;22.174;2023-04-15T08:45:45;3.25;;;2.33;;
50350;SDS011;36250;48.740;22.174;2023-04-15T08:48:12;1.95;;;1.75;;
50350;SDS011;36250;48.740;22.174;2023-04-15T08:50:40;5.43;;;2.03;;
50350;SDS011;36250;48.740;22.174;2023-04-15T08:53:06;5.75;;;2.22;;
50350;SDS011;36250;48.740;22.174;2023-04-15T08:55:31;3.13;;;1.98;;
50350;SDS011;36250;48.740;22.174;2023-04-15T08:58:00;2.38;;;2.08;;
50350;SDS011;36250;48.740;22.174;2023-04-15T09:00:26;2.30;;;2.10;;
50350;SDS011;36250;48.740;22.174;2023-04-15T09:02:53;5.90;;;2.20;;
50350;SDS011;36250;48.740;22.174;2023-04-15T09:05:20;2.80;;;2.35;;
50350;SDS011;36250;48.740;22.174;2023-04-15T09:07:46;3.60;;;2.40;;
50350;SDS011;36250;48.740;22.174;2023-04-15T09:10:12;2.53;;;2.00;;
50350;SDS011;36250;48.740;22.174;2023-04-15T09:12:38;3.05;;;1.95;;
50350;SDS011;36250;48.740;22.174;2023-04-15T09:15:03;8.13;;;2.88;;
50350;SDS011;36250;48.740;22.174;2023-04-15T09:17:29;4.25;;;2.15;;
50350;SDS011;36250;48.740;22.174;2023-04-15T09:20:07;1.67;;;1.58;;
50350;SDS011;36250;48.740;22.174;2023-04-15T09:22:37;2.15;;;1.83;;
50350;SDS011;36250;48.740;22.174;2023-04-15T09:25:03;4.22;;;1.40;;
50350;SDS011;36250;48.740;22.174;2023-04-15T09:27:52;2.45;;;1.58;;
50350;SDS011;36250;48.740;22.174;2023-04-15T09:30:19;1.40;;;1.30;;
50350;SDS011;36250;48.740;22.174;2023-04-15T09:32:52;3.10;;;1.45;;
50350;SDS011;36250;48.740;22.174;2023-04-15T09:35:21;2.67;;;1.65;;
50350;SDS011;36250;48.740;22.174;2023-04-15T09:37:50;3.30;;;1.55;;
50350;SDS011;36250;48.740;22.174;2023-04-15T09:40:32;3.95;;;1.85;;
50350;SDS011;36250;48.740;22.174;2023-04-15T09:43:02;1.90;;;1.80;;
50350;SDS011;36250;48.740;22.174;2023-04-15T09:45:29;6.30;;;2.58;;
50350;SDS011;36250;48.740;22.174;2023-04-15T09:47:59;3.83;;;1.70;;
50350;SDS011;36250;48.740;22.174;2023-04-15T09:50:42;1.65;;;1.40;;
50350;SDS011;36250;48.740;22.174;2023-04-15T09:53:10;2.65;;;1.40;;
50350;SDS011;36250;48.740;22.174;2023-04-15T09:55:39;2.60;;;1.60;;
50350;SDS011;36250;48.740;22.174;2023-04-15T09:58:16;3.30;;;1.42;;
50350;SDS011;36250;48.740;22.174;2023-04-15T10:00:42;2.30;;;1.40;;
50350;SDS011;36250;48.740;22.174;2023-04-15T10:03:08;1.13;;;1.10;;
50350;SDS011;36250;48.740;22.174;2023-04-15T10:05:33;4.13;;;1.27;;
50350;SDS011;36250;48.740;22.174;2023-04-15T10:07:59;4.10;;;1.73;;
50350;SDS011;36250;48.740;22.174;2023-04-15T10:10:26;4.22;;;1.73;;
50350;SDS011;36250;48.740;22.174;2023-04-15T10:12:51;7.15;;;3.53;;
50350;SDS011;36250;48.740;22.174;2023-04-15T10:15:18;2.42;;;1.45;;
50350;SDS011;36250;48.740;22.174;2023-04-15T10:17:45;3.20;;;1.90;;
50350;SDS011;36250;48.740;22.174;2023-04-15T10:20:13;4.15;;;1.90;;
50350;SDS011;36250;48.740;22.174;2023-04-15T10:22:41;2.70;;;2.15;;
50350;SDS011;36250;48.740;22.174;2023-04-15T10:25:09;7.65;;;4.03;;
50350;SDS011;36250;48.740;22.174;2023-04-15T10:27:35;4.15;;;2.38;;
50350;SDS011;36250;48.740;22.174;2023-04-15T10:30:01;9.60;;;2.40;;
50350;SDS011;36250;48.740;22.174;2023-04-15T10:32:27;4.97;;;3.05;;
50350;SDS011;36250;48.740;22.174;2023-04-15T10:34:53;5.43;;;3.08;;
50350;SDS011;36250;48.740;22.174;2023-04-15T10:37:20;5.78;;;3.95;;
50350;SDS011;36250;48.740;22.174;2023-04-15T10:39:47;6.18;;;4.78;;
50350;SDS011;36250;48.740;22.174;2023-04-15T10:42:14;4.57;;;4.10;;
50350;SDS011;36250;48.740;22.174;2023-04-15T10:44:41;4.57;;;3.90;;
50350;SDS011;36250;48.740;22.174;2023-04-15T10:47:09;6.90;;;4.65;;
50350;SDS011;36250;48.740;22.174;2023-04-15T10:49:42;8.25;;;6.13;;
50350;SDS011;36250;48.740;22.174;2023-04-15T10:52:11;8.82;;;6.18;;
50350;SDS011;36250;48.740;22.174;2023-04-15T10:54:39;5.53;;;5.07;;
50350;SDS011;36250;48.740;22.174;2023-04-15T11:02:36;5.05;;;4.40;;
50350;SDS011;36250;48.740;22.174;2023-04-15T11:05:13;5.25;;;4.70;;
50350;SDS011;36250;48.740;22.174;2023-04-15T11:12:50;4.00;;;3.63;;
50350;SDS011;36250;48.740;22.174;2023-04-15T11:20:37;4.30;;;3.92;;
50350;SDS011;36250;48.740;22.174;2023-04-15T11:23:04;4.70;;;3.78;;
50350;SDS011;36250;48.740;22.174;2023-04-15T11:25:31;5.15;;;3.97;;
50350;SDS011;36250;48.740;22.174;2023-04-15T11:27:57;6.68;;;3.55;;
50350;SDS011;36250;48.740;22.174;2023-04-15T11:30:25;4.05;;;3.63;;
50350;SDS011;36250;48.740;22.174;2023-04-15T11:32:53;3.95;;;3.17;;
50350;SDS011;36250;48.740;22.174;2023-04-15T11:35:19;5.88;;;3.00;;
50350;SDS011;36250;48.740;22.174;2023-04-15T11:37:46;3.25;;;3.03;;
50350;SDS011;36250;48.740;22.174;2023-04-15T11:40:13;3.35;;;3.05;;
50350;SDS011;36250;48.740;22.174;2023-04-15T11:42:41;3.13;;;2.80;;
50350;SDS011;36250;48.740;22.174;2023-04-15T11:45:11;3.40;;;3.00;;
50350;SDS011;36250;48.740;22.174;2023-04-15T11:47:38;4.68;;;3.38;;
50350;SDS011;36250;48.740;22.174;2023-04-15T11:50:17;5.00;;;3.75;;
50350;SDS011;36250;48.740;22.174;2023-04-15T11:52:57;5.22;;;4.28;;
50350;SDS011;36250;48.740;22.174;2023-04-15T11:55:23;5.07;;;4.57;;
50350;SDS011;36250;48.740;22.174;2023-04-15T11:58:04;8.68;;;4.40;;
50350;SDS011;36250;48.740;22.174;2023-04-15T12:00:37;4.13;;;3.83;;
50350;SDS011;36250;48.740;22.174;2023-04-15T12:06:20;2.42;;;2.33;;
50350;SDS011;36250;48.740;22.174;2023-04-15T12:08:51;2.65;;;2.45;;
50350;SDS011;36250;48.740;22.174;2023-04-15T12:11:27;3.47;;;1.92;;
50350;SDS011;36250;48.740;22.174;2023-04-15T12:16:30;2.10;;;1.90;;
50350;SDS011;36250;48.740;22.174;2023-04-15T12:18:57;1.63;;;1.52;;
50350;SDS011;36250;48.740;22.174;2023-04-15T12:21:25;1.52;;;1.33;;
50350;SDS011;36250;48.740;22.174;2023-04-15T12:23:55;1.70;;;1.60;;
50350;SDS011;36250;48.740;22.174;2023-04-15T12:26:25;2.13;;;1.92;;
50350;SDS011;36250;48.740;22.174;2023-04-15T12:28:55;1.60;;;1.50;;
50350;SDS011;36250;48.740;22.174;2023-04-15T12:31:25;3.50;;;3.00;;
50350;SDS011;36250;48.740;22.174;2023-04-15T12:33:51;2.38;;;2.13;;
50350;SDS011;36250;48.740;22.174;2023-04-15T12:36:22;3.88;;;2.60;;
50350;SDS011;36250;48.740;22.174;2023-04-15T12:38:48;3.22;;;2.92;;
50350;SDS011;36250;48.740;22.174;2023-04-15T12:41:14;4.57;;;2.72;;
50350;SDS011;36250;48.740;22.174;2023-04-15T12:43:40;2.55;;;2.00;;
50350;SDS011;36250;48.740;22.174;2023-04-15T12:46:06;1.63;;;1.52;;
50350;SDS011;36250;48.740;22.174;2023-04-15T12:48:32;2.45;;;1.75;;
50350;SDS011;36250;48.740;22.174;2023-04-15T12:50:58;2.63;;;2.13;;
50350;SDS011;36250;48.740;22.174;2023-04-15T12:53:23;8.90;;;5.85;;
50350;SDS011;36250;48.740;22.174;2023-04-15T12:55:48;5.43;;;4.32;;
50350;SDS011;36250;48.740;22.174;2023-04-15T12:58:14;8.30;;;6.22;;
50350;SDS011;36250;48.740;22.174;2023-04-15T13:00:39;4.50;;;2.65;;
50350;SDS011;36250;48.740;22.174;2023-04-15T13:03:04;3.72;;;3.22;;
50350;SDS011;36250;48.740;22.174;2023-04-15T13:05:30;3.03;;;2.33;;
50350;SDS011;36250;48.740;22.174;2023-04-15T13:07:56;1.23;;;1.13;;
50350;SDS011;36250;48.740;22.174;2023-04-15T13:10:21;1.63;;;1.25;;
50350;SDS011;36250;48.740;22.174;2023-04-15T13:12:50;1.00;;;1.00;;
50350;SDS011;36250;48.740;22.174;2023-04-15T13:15:17;3.95;;;1.40;;
50350;SDS011;36250;48.740;22.174;2023-04-15T13:17:44;4.45;;;2.88;;
50350;SDS011;36250;48.740;22.174;2023-04-15T13:20:10;4.20;;;3.35;;
50350;SDS011;36250;48.740;22.174;2023-04-15T13:22:36;1.73;;;1.63;;
50350;SDS011;36250;48.740;22.174;2023-04-15T13:25:01;1.27;;;1.10;;
50350;SDS011;36250;48.740;22.174;2023-04-15T13:27:27;5.20;;;2.97;;
50350;SDS011;36250;48.740;22.174;2023-04-15T13:29:52;4.65;;;1.90;;
50350;SDS011;36250;48.740;22.174;2023-04-15T13:32:18;2.40;;;2.17;;
50350;SDS011;36250;48.740;22.174;2023-04-15T13:34:43;1.55;;;1.30;;
50350;SDS011;36250;48.740;22.174;2023-04-15T13:37:09;2.17;;;1.33;;
50350;SDS011;36250;48.740;22.174;2023-04-15T13:39:34;2.05;;;1.90;;
50350;SDS011;36250;48.740;22.174;2023-04-15T13:42:00;2.20;;;1.60;;
50350;SDS011;36250;48.740;22.174;2023-04-15T13:44:26;2.85;;;1.52;;
50350;SDS011;36250;48.740;22.174;2023-04-15T13:46:52;0.90;;;0.90;;
50350;SDS011;36250;48.740;22.174;2023-04-15T13:49:17;1.35;;;1.23;;
50350;SDS011;36250;48.740;22.174;2023-04-15T13:51:43;1.33;;;1.13;;
50350;SDS011;36250;48.740;22.174;2023-04-15T13:54:08;2.17;;;1.20;;
50350;SDS011;36250;48.740;22.174;2023-04-15T13:56:33;1.80;;;1.58;;
50350;SDS011;36250;48.740;22.174;2023-04-15T13:58:59;1.80;;;1.50;;
50350;SDS011;36250;48.740;22.174;2023-04-15T14:01:26;1.63;;;1.52;;
50350;SDS011;36250;48.740;22.174;2023-04-15T14:03:52;1.50;;;1.40;;
50350;SDS011;36250;48.740;22.174;2023-04-15T14:06:18;1.90;;;1.80;;
50350;SDS011;36250;48.740;22.174;2023-04-15T14:08:44;2.38;;;2.00;;
50350;SDS011;36250;48.740;22.174;2023-04-15T14:11:09;3.22;;;2.13;;
50350;SDS011;36250;48.740;22.174;2023-04-15T14:13:35;2.53;;;2.30;;
50350;SDS011;36250;48.740;22.174;2023-04-15T14:16:00;3.88;;;2.75;;
50350;SDS011;36250;48.740;22.174;2023-04-15T14:18:26;3.45;;;2.72;;
50350;SDS011;36250;48.740;22.174;2023-04-15T14:20:51;3.63;;;2.00;;
50350;SDS011;36250;48.740;22.174;2023-04-15T14:23:17;3.30;;;2.38;;
50350;SDS011;36250;48.740;22.174;2023-04-15T14:25:42;2.63;;;1.98;;
50350;SDS011;36250;48.740;22.174;2023-04-15T14:28:08;1.55;;;1.40;;
50350;SDS011;36250;48.740;22.174;2023-04-15T14:30:33;2.40;;;1.50;;
50350;SDS011;36250;48.740;22.174;2023-04-15T14:32:59;3.35;;;1.30;;
50350;SDS011;36250;48.740;22.174;2023-04-15T14:35:24;4.50;;;0.90;;
50350;SDS011;36250;48.740;22.174;2023-04-15T14:37:51;0.85;;;0.85;;
50350;SDS011;36250;48.740;22.174;2023-04-15T14:40:17;1.50;;;1.40;;
50350;SDS011;36250;48.740;22.174;2023-04-15T14:42:43;1.00;;;1.00;;
50350;SDS011;36250;48.740;22.174;2023-04-15T14:45:09;1.10;;;1.00;;
50350;SDS011;36250;48.740;22.174;2023-04-15T14:47:34;3.72;;;1.98;;